EDDW

Bremen Airport

Bremen, Germany
METAR EDDW 200020Z 20007KT CAVOK 18/13 Q1016
Observed Flight Rules
Sep-20 @ 00:20 UTC (22 minutes ago) Visual Flight Rules
Wind Visibility Clouds
200° at 7 knots 10,000+ meters
  • Clear skies
Temperatures Readings
Current 18°C / 64°F
Dewpoint 13°C / 55°F
Humidity 73%
Altimeter 30" Hg
Pressure 1016 hPa
Elevation 5
METAR EDDW 200020Z 20007KT CAVOK 18/13 Q1016
Observed Flight Rules
Sep-20 @ 00:20 UTC
(22 minutes ago)
VFR
Wind Visibility
200° at 7 knots 10,000+ meters
Clouds
  • Clear skies
Temperature Dewpoint
18°C / 64°F 13°C / 55°F
Humidity Altimeter Pressure
73% 30" Hg 1016 hPa